Time;durP1;ratioP1;P1;durP2;ratioP2;P2;SDS_P1;SDS_P2;PMS_P1;PMS_P2;Temp;Humidity;BMP_temperature;BMP_pressure;BME280_temperature;BME280_humidity;BME280_pressure;Samples;Min_cycle;Max_cycle;Signal;HPM_P1;HPM_P2
2023/10/06 00:00:53;;;;;;;13.25;8.38;;;15.90;61.90;;;;;;5051025;28;20104;-54
2023/10/06 00:03:21;;;;;;;12.55;8.00;;;15.80;61.90;;;;;;5051001;28;20037;-53
2023/10/06 00:05:50;;;;;;;11.55;8.18;;;15.80;61.90;;;;;;5050927;28;20532;-53
2023/10/06 00:08:32;;;;;;;16.17;7.50;;;15.80;61.90;;;;;;5050642;28;20044;-51
2023/10/06 00:11:11;;;;;;;14.95;8.63;;;15.80;62.00;;;;;;5051159;28;20029;-53
2023/10/06 00:13:37;;;;;;;17.23;8.90;;;15.80;62.00;;;;;;5051228;28;20025;-54
2023/10/06 00:16:07;;;;;;;11.73;7.80;;;15.80;62.00;;;;;;5050942;28;20106;-52
2023/10/06 00:18:36;;;;;;;13.90;8.38;;;15.80;62.10;;;;;;5051081;28;20056;-54
2023/10/06 00:21:13;;;;;;;10.82;7.65;;;15.80;62.10;;;;;;5051091;28;20480;-54
2023/10/06 00:23:42;;;;;;;12.93;8.65;;;15.80;62.00;;;;;;5051089;28;20126;-53
2023/10/06 00:26:12;;;;;;;16.38;9.18;;;15.80;62.00;;;;;;5051026;28;20029;-54
2023/10/06 00:28:39;;;;;;;13.40;8.00;;;15.80;62.20;;;;;;5051011;28;20029;-53
2023/10/06 00:31:08;;;;;;;16.15;9.57;;;15.80;62.20;;;;;;5050951;28;20033;-53
2023/10/06 00:33:37;;;;;;;10.80;7.72;;;15.80;62.20;;;;;;5050951;28;20040;-53
2023/10/06 00:36:11;;;;;;;13.05;8.52;;;15.80;62.30;;;;;;5050694;28;20021;-54
2023/10/06 00:38:37;;;;;;;10.63;7.60;;;15.80;62.20;;;;;;5051001;28;20017;-53
2023/10/06 00:41:07;;;;;;;12.48;8.18;;;15.80;62.20;;;;;;5050927;28;20087;-53
2023/10/06 00:43:36;;;;;;;14.68;8.60;;;15.80;62.30;;;;;;5050950;28;20056;-54
2023/10/06 00:46:06;;;;;;;11.43;8.68;;;15.80;62.30;;;;;;5050848;28;20485;-53
2023/10/06 00:48:38;;;;;;;12.13;7.65;;;15.80;62.40;;;;;;5052917;28;20742;-51
2023/10/06 00:51:19;;;;;;;11.98;8.07;;;15.80;62.50;;;;;;5054562;28;20033;-54
2023/10/06 00:53:57;;;;;;;12.93;7.05;;;15.80;62.40;;;;;;5054548;28;20104;-55
2023/10/06 00:56:23;;;;;;;11.25;7.50;;;15.80;62.30;;;;;;5054311;28;20040;-52
2023/10/06 00:58:52;;;;;;;14.82;8.23;;;15.80;62.60;;;;;;5054466;28;20083;-53
2023/10/06 01:01:19;;;;;;;10.82;7.05;;;15.80;62.50;;;;;;5054132;28;20477;-54
2023/10/06 01:04:00;;;;;;;14.88;8.10;;;15.80;62.40;;;;;;5054257;28;20025;-54
2023/10/06 01:06:33;;;;;;;13.68;7.90;;;15.80;62.40;;;;;;5054431;28;20036;-53
2023/10/06 01:09:14;;;;;;;14.73;8.07;;;15.80;62.50;;;;;;5054251;28;20032;-53
2023/10/06 01:11:46;;;;;;;11.75;7.95;;;15.80;62.50;;;;;;5054339;28;20021;-54
2023/10/06 01:14:14;;;;;;;14.68;7.70;;;15.90;62.70;;;;;;5054082;28;20120;-54
2023/10/06 01:16:42;;;;;;;16.98;7.57;;;15.90;62.70;;;;;;5054274;28;20040;-53
2023/10/06 01:19:15;;;;;;;9.85;7.70;;;15.80;62.60;;;;;;5054156;28;20423;-54
2023/10/06 01:21:47;;;;;;;13.98;7.90;;;15.80;62.70;;;;;;5054052;28;20104;-53
2023/10/06 01:24:26;;;;;;;10.43;7.70;;;15.80;62.70;;;;;;5053745;28;20068;-52
2023/10/06 01:27:06;;;;;;;12.38;7.22;;;15.80;62.70;;;;;;5053725;28;20033;-53
2023/10/06 01:29:32;;;;;;;16.25;7.65;;;15.90;62.80;;;;;;5053917;28;20039;-54
2023/10/06 01:32:08;;;;;;;12.02;7.38;;;15.90;62.80;;;;;;5053627;28;20078;-53
2023/10/06 01:34:38;;;;;;;11.75;7.22;;;15.90;62.80;;;;;;5053705;28;20032;-53
2023/10/06 01:37:05;;;;;;;11.30;7.35;;;15.90;62.70;;;;;;5053815;28;20036;-52
2023/10/06 01:39:32;;;;;;;11.02;6.95;;;15.90;62.70;;;;;;5053574;28;20424;-54
2023/10/06 01:42:04;;;;;;;10.05;6.75;;;15.90;62.80;;;;;;5053668;28;20025;-53
2023/10/06 01:44:30;;;;;;;10.82;7.55;;;15.90;62.70;;;;;;5053801;28;20384;-53
2023/10/06 01:46:57;;;;;;;10.80;6.63;;;15.90;62.70;;;;;;5053731;28;20025;-52
2023/10/06 01:49:23;;;;;;;10.95;7.18;;;16.00;62.70;;;;;;5053796;28;20029;-51
2023/10/06 01:51:52;;;;;;;10.25;6.90;;;16.00;62.70;;;;;;5053559;28;20025;-53
2023/10/06 01:54:19;;;;;;;9.00;6.45;;;16.00;62.80;;;;;;5053779;28;20096;-52
2023/10/06 01:56:46;;;;;;;14.10;8.20;;;16.00;62.70;;;;;;5053152;28;20021;-53
2023/10/06 01:59:14;;;;;;;10.27;6.68;;;16.10;62.70;;;;;;5052958;28;20388;-52
2023/10/06 02:01:41;;;;;;;13.27;6.35;;;16.10;62.70;;;;;;5053063;28;20392;-51
2023/10/06 02:04:11;;;;;;;10.95;6.95;;;16.10;62.80;;;;;;5052888;28;20060;-53
2023/10/06 02:06:48;;;;;;;10.48;6.70;;;16.10;62.80;;;;;;5053107;28;20078;-52
2023/10/06 02:09:18;;;;;;;10.88;6.95;;;16.10;62.80;;;;;;5053141;28;20036;-53
2023/10/06 02:11:45;;;;;;;11.32;6.57;;;16.10;62.80;;;;;;5052929;28;20021;-52
2023/10/06 02:14:14;;;;;;;11.38;6.38;;;16.20;62.80;;;;;;5052888;28;20365;-54
2023/10/06 02:16:40;;;;;;;8.32;5.80;;;16.20;62.80;;;;;;5053082;28;20104;-53
2023/10/06 02:19:28;;;;;;;10.52;6.93;;;16.20;62.80;;;;;;5052704;28;20033;-53
2023/10/06 02:21:51;;;;;;;9.50;6.20;;;16.20;62.70;;;;;;5052283;28;20052;-53
2023/10/06 02:24:17;;;;;;;8.63;5.65;;;16.20;62.80;;;;;;5052908;28;20124;-52
2023/10/06 02:26:44;;;;;;;9.80;6.47;;;16.20;62.80;;;;;;5052527;28;20025;-53
2023/10/06 02:29:21;;;;;;;9.52;6.03;;;16.30;62.80;;;;;;5052482;28;20512;-52
2023/10/06 02:31:47;;;;;;;11.85;6.82;;;16.30;62.80;;;;;;5052781;28;20040;-53
2023/10/06 02:34:24;;;;;;;7.80;5.55;;;16.30;62.70;;;;;;5052523;28;20029;-52
2023/10/06 02:36:52;;;;;;;8.73;5.47;;;16.30;62.80;;;;;;5052762;28;20492;-53
2023/10/06 02:39:19;;;;;;;9.02;5.50;;;16.30;62.70;;;;;;5052805;28;20163;-53
2023/10/06 02:41:46;;;;;;;9.20;5.78;;;16.30;62.80;;;;;;5052505;28;20102;-53
2023/10/06 02:44:15;;;;;;;10.75;5.57;;;16.40;62.80;;;;;;5052478;28;20036;-52
2023/10/06 02:46:44;;;;;;;12.13;5.72;;;16.40;62.90;;;;;;5052403;28;20029;-50
2023/10/06 02:49:13;;;;;;;9.27;5.95;;;16.40;62.70;;;;;;5052133;28;20091;-53
2023/10/06 02:51:48;;;;;;;9.77;6.28;;;16.50;62.80;;;;;;5052437;28;20035;-54
2023/10/06 02:56:45;;;;;;;8.52;5.82;;;16.50;62.90;;;;;;5051963;28;20074;-52
2023/10/06 02:59:24;;;;;;;7.20;5.45;;;16.50;62.90;;;;;;5051215;28;20036;-51
2023/10/06 03:02:06;;;;;;;10.30;6.35;;;16.50;62.80;;;;;;5051590;28;20025;-53
2023/10/06 03:04:36;;;;;;;7.75;5.82;;;16.50;62.80;;;;;;5051089;28;20500;-52
2023/10/06 03:07:04;;;;;;;9.52;5.82;;;16.50;62.70;;;;;;5051389;28;20420;-52
2023/10/06 03:09:44;;;;;;;7.80;5.20;;;16.50;62.70;;;;;;5051284;28;20021;-53
2023/10/06 03:12:25;;;;;;;8.68;5.70;;;16.50;62.70;;;;;;5050854;28;20074;-53
2023/10/06 03:14:50;;;;;;;;;;;16.50;62.70;;;;;;5051732;28;20106;-54
2023/10/06 03:17:19;;;;;;;8.85;5.80;;;16.40;62.70;;;;;;5050953;28;19954;-53
2023/10/06 03:19:55;;;;;;;10.07;5.55;;;16.50;62.90;;;;;;5050948;28;20472;-53
2023/10/06 03:22:23;;;;;;;10.82;5.85;;;16.40;62.80;;;;;;5051182;28;20028;-52
2023/10/06 03:24:58;;;;;;;12.52;5.72;;;16.50;62.90;;;;;;5050542;28;20356;-53
2023/10/06 03:27:24;;;;;;;9.13;5.80;;;16.50;62.90;;;;;;5049260;28;20085;-53
2023/10/06 03:32:32;;;;;;;12.07;6.03;;;16.50;62.70;;;;;;5049110;28;20028;-53
2023/10/06 03:35:05;;;;;;;9.02;5.78;;;16.50;62.80;;;;;;5048763;28;20104;-53
2023/10/06 03:40:23;;;;;;;7.68;5.72;;;16.50;62.80;;;;;;5048965;28;20499;-52
2023/10/06 03:42:50;;;;;;;10.35;6.05;;;16.50;62.90;;;;;;5050685;28;20400;-52
2023/10/06 03:45:26;;;;;;;7.55;5.18;;;16.50;63.00;;;;;;5048767;28;20447;-50
2023/10/06 03:48:08;;;;;;;7.43;5.15;;;16.50;63.00;;;;;;5047855;28;20020;-52
2023/10/06 03:50:38;;;;;;;8.13;5.18;;;16.50;63.00;;;;;;5049311;28;20029;-52
2023/10/06 03:53:11;;;;;;;8.32;5.70;;;16.50;63.00;;;;;;5049233;28;20017;-52
2023/10/06 03:55:52;;;;;;;9.65;5.85;;;16.50;63.10;;;;;;5048472;28;20052;-52
2023/10/06 03:58:18;;;;;;;10.30;5.30;;;16.50;63.10;;;;;;5049118;28;20021;-52
2023/10/06 04:00:47;;;;;;;8.90;5.75;;;16.50;63.20;;;;;;5050723;28;20562;-53
2023/10/06 04:03:14;;;;;;;8.02;5.93;;;16.40;63.20;;;;;;5051261;28;20029;-51
2023/10/06 04:05:48;;;;;;;8.70;5.72;;;16.40;63.20;;;;;;5050830;28;20131;-54
2023/10/06 04:08:16;;;;;;;8.95;5.70;;;16.40;63.40;;;;;;5051257;28;20037;-54
2023/10/06 04:10:48;;;;;;;8.27;5.38;;;16.40;63.40;;;;;;5049596;28;20389;-51
2023/10/06 04:13:17;;;;;;;8.60;5.30;;;16.30;63.40;;;;;;5051195;28;20274;-51
2023/10/06 04:15:48;;;;;;;10.38;5.82;;;16.40;63.60;;;;;;5051067;28;20021;-54
2023/10/06 04:18:16;;;;;;;8.93;5.32;;;16.40;63.70;;;;;;5051125;28;20145;-53
2023/10/06 04:20:43;;;;;;;8.82;5.60;;;16.40;63.70;;;;;;5050843;28;20396;-53
2023/10/06 04:23:12;;;;;;;7.57;5.28;;;16.30;63.70;;;;;;5054139;28;20029;-53
2023/10/06 04:25:38;;;;;;;7.38;5.47;;;16.30;63.70;;;;;;5054863;28;20021;-52
2023/10/06 04:28:08;;;;;;;8.90;5.80;;;16.30;63.80;;;;;;5054883;28;20037;-53
2023/10/06 04:30:54;;;;;;;8.30;6.10;;;16.30;63.90;;;;;;5054937;28;20071;-53
2023/10/06 04:33:20;;;;;;;9.90;5.35;;;16.40;63.90;;;;;;5054529;28;20401;-55
2023/10/06 04:35:59;;;;;;;7.85;5.63;;;16.30;63.90;;;;;;5054631;28;20029;-54
2023/10/06 04:38:28;;;;;;;8.45;5.57;;;16.30;63.90;;;;;;5054913;28;20024;-54
2023/10/06 04:40:56;;;;;;;9.13;5.57;;;16.30;63.90;;;;;;5054789;28;20036;-56
2023/10/06 04:43:22;;;;;;;7.38;5.45;;;16.30;63.90;;;;;;5054835;28;20370;-52
2023/10/06 04:45:49;;;;;;;8.52;5.20;;;16.30;63.90;;;;;;5054438;28;20029;-51
2023/10/06 04:48:15;;;;;;;7.88;5.43;;;16.30;63.90;;;;;;5054703;28;20032;-51
2023/10/06 04:50:44;;;;;;;7.57;5.25;;;16.30;63.90;;;;;;5054402;28;20021;-52
2023/10/06 04:53:11;;;;;;;10.38;5.63;;;16.30;64.10;;;;;;5054475;28;20492;-52
2023/10/06 04:55:38;;;;;;;8.32;5.45;;;16.30;64.20;;;;;;5054371;28;20033;-51
2023/10/06 04:58:13;;;;;;;12.20;6.53;;;16.30;64.20;;;;;;5052958;28;20469;-51
2023/10/06 05:00:39;;;;;;;8.95;5.53;;;16.30;64.30;;;;;;5053495;28;20049;-52
2023/10/06 05:03:06;;;;;;;10.40;6.57;;;16.20;64.30;;;;;;5051705;28;20033;-51
2023/10/06 05:05:37;;;;;;;8.07;5.22;;;16.20;64.50;;;;;;5052929;28;20462;-53
2023/10/06 05:08:04;;;;;;;9.48;5.40;;;16.20;64.60;;;;;;5053993;28;20029;-53
2023/10/06 05:10:31;;;;;;;8.80;5.60;;;16.20;64.60;;;;;;5053362;28;20476;-53
2023/10/06 05:12:59;;;;;;;8.63;5.82;;;16.30;64.60;;;;;;5053930;28;20035;-53
2023/10/06 05:15:26;;;;;;;7.57;5.50;;;16.30;64.70;;;;;;5053834;28;20029;-52
2023/10/06 05:17:55;;;;;;;12.90;6.22;;;16.30;64.80;;;;;;5052376;28;20036;-52
2023/10/06 05:20:29;;;;;;;8.27;5.47;;;16.30;64.80;;;;;;5052635;28;20041;-53
2023/10/06 05:23:01;;;;;;;9.35;5.80;;;16.30;65.10;;;;;;5052538;28;20033;-53
2023/10/06 05:25:29;;;;;;;8.43;5.15;;;16.20;65.10;;;;;;5052206;28;20085;-51
2023/10/06 05:27:59;;;;;;;9.25;5.50;;;16.20;65.30;;;;;;5052494;28;20044;-52
2023/10/06 05:30:26;;;;;;;10.88;5.93;;;16.20;65.50;;;;;;5053202;28;20094;-54
2023/10/06 05:32:51;;;;;;;8.40;5.30;;;16.20;65.60;;;;;;5052433;28;20025;-50
2023/10/06 05:35:20;;;;;;;6.93;4.57;;;16.20;65.80;;;;;;5052426;28;20116;-53
2023/10/06 05:37:46;;;;;;;10.45;5.38;;;16.20;65.70;;;;;;5053127;28;20025;-51
2023/10/06 05:40:12;;;;;;;10.77;5.25;;;16.20;65.60;;;;;;5052930;28;20033;-52
2023/10/06 05:42:41;;;;;;;7.90;4.85;;;16.20;65.70;;;;;;5052541;28;20036;-52
2023/10/06 05:45:15;;;;;;;8.00;4.97;;;16.20;65.80;;;;;;5052713;28;20032;-52
2023/10/06 05:47:45;;;;;;;8.23;4.63;;;16.20;65.70;;;;;;5051665;28;20033;-52
2023/10/06 05:50:18;;;;;;;8.82;4.75;;;16.20;65.80;;;;;;5037201;28;20132;-53
2023/10/06 05:52:44;;;;;;;6.97;4.72;;;16.20;65.80;;;;;;5037515;28;20021;-52
2023/10/06 05:55:12;;;;;;;9.27;5.07;;;16.30;65.70;;;;;;5045798;28;20024;-53
2023/10/06 05:57:43;;;;;;;11.15;4.80;;;16.30;65.60;;;;;;5048465;28;20032;-50
2023/10/06 06:00:18;;;;;;;8.00;4.88;;;16.30;65.60;;;;;;5032218;28;20026;-52
2023/10/06 06:02:47;;;;;;;6.03;4.38;;;16.40;66.20;;;;;;5032369;28;20037;-54
2023/10/06 06:05:13;;;;;;;9.52;4.85;;;16.40;65.50;;;;;;5032522;28;20488;-54
2023/10/06 06:20:18;;;;;;;9.63;4.40;;;16.30;64.80;;;;;;5139214;27;20382;-53
2023/10/06 06:22:47;;;;;;;5.97;3.97;;;17.40;62.90;;;;;;5141300;27;20426;-52
2023/10/06 06:26:38;;;;;;;11.45;4.20;;;17.10;62.70;;;;;;5081594;27;1682507;-55
2023/10/06 06:29:04;;;;;;;8.68;4.18;;;17.00;63.50;;;;;;5122643;27;20023;-54
2023/10/06 06:31:34;;;;;;;7.40;5.05;;;17.00;63.70;;;;;;5125863;27;20023;-55
2023/10/06 06:34:05;;;;;;;6.75;3.90;;;17.00;63.70;;;;;;5123901;28;20023;-56
2023/10/06 06:36:32;;;;;;;14.50;4.30;;;16.90;63.60;;;;;;5121120;28;20741;-55
2023/10/06 06:38:58;;;;;;;9.07;4.13;;;16.90;63.70;;;;;;5116241;28;20084;-55
2023/10/06 06:41:24;;;;;;;5.88;4.00;;;16.90;63.90;;;;;;5116291;28;20092;-56
2023/10/06 06:43:57;;;;;;;6.72;3.85;;;16.80;63.90;;;;;;5122102;28;20035;-54
2023/10/06 06:46:24;;;;;;;6.28;4.00;;;16.80;63.90;;;;;;5114319;28;20466;-54
2023/10/06 06:48:49;;;;;;;5.53;3.30;;;16.80;64.20;;;;;;5121268;27;20034;-55
2023/10/06 06:51:15;;;;;;;6.13;3.55;;;16.80;64.10;;;;;;5123700;28;20031;-56
2023/10/06 06:53:41;;;;;;;7.82;3.70;;;16.80;64.00;;;;;;5125177;28;20027;-54
2023/10/06 06:56:10;;;;;;;15.70;4.38;;;16.80;63.90;;;;;;5123282;28;20027;-55
2023/10/06 06:58:37;;;;;;;8.70;3.53;;;16.80;63.60;;;;;;5121155;27;20131;-55
2023/10/06 07:01:05;;;;;;;8.25;3.50;;;16.80;63.40;;;;;;5117681;27;20084;-54
2023/10/06 07:03:31;;;;;;;5.20;3.70;;;16.80;63.20;;;;;;5117616;28;20091;-55
2023/10/06 07:05:57;;;;;;;5.88;3.20;;;16.80;63.20;;;;;;5115587;27;21264;-54
2023/10/06 07:08:24;;;;;;;4.90;3.38;;;16.80;63.40;;;;;;5112395;27;21993;-55
2023/10/06 07:10:53;;;;;;;20.00;3.85;;;16.70;63.90;;;;;;5120848;28;20119;-54
2023/10/06 07:13:22;;;;;;;6.30;3.22;;;16.80;63.40;;;;;;5112081;27;20603;-56
2023/10/06 07:15:51;;;;;;;5.07;2.67;;;16.80;62.90;;;;;;5114796;28;20032;-53
2023/10/06 07:18:19;;;;;;;5.10;2.60;;;16.80;62.60;;;;;;5112347;27;20023;-52
2023/10/06 07:20:45;;;;;;;5.88;2.80;;;16.80;62.40;;;;;;5119249;27;20466;-52
2023/10/06 07:23:11;;;;;;;6.10;2.65;;;16.80;61.90;;;;;;5120193;28;20144;-51
2023/10/06 07:25:37;;;;;;;4.45;2.97;;;16.80;61.80;;;;;;5119538;27;20047;-54
2023/10/06 07:28:05;;;;;;;6.38;2.97;;;16.80;62.20;;;;;;5117775;28;22366;-54
2023/10/06 07:30:34;;;;;;;5.85;2.90;;;16.80;62.20;;;;;;5119716;27;20043;-55
2023/10/06 07:33:02;;;;;;;7.80;2.75;;;16.90;61.90;;;;;;5112720;28;20028;-53
2023/10/06 07:35:36;;;;;;;5.30;2.95;;;16.90;62.00;;;;;;5114076;28;20063;-54
2023/10/06 07:38:03;;;;;;;4.65;3.00;;;16.90;62.00;;;;;;5109635;27;20515;-52
2023/10/06 07:40:29;;;;;;;6.38;3.17;;;16.90;62.50;;;;;;5099528;28;20167;-55
2023/10/06 07:42:55;;;;;;;4.63;2.80;;;16.80;62.50;;;;;;5097045;28;20032;-57
2023/10/06 07:45:21;;;;;;;5.57;2.85;;;16.80;62.80;;;;;;5107946;28;20569;-54
2023/10/06 07:47:47;;;;;;;5.32;3.15;;;16.90;63.00;;;;;;5101042;28;20106;-58
2023/10/06 07:50:14;;;;;;;5.57;2.92;;;16.90;62.60;;;;;;5104027;28;20027;-53
2023/10/06 07:52:41;;;;;;;7.88;2.97;;;17.00;62.80;;;;;;5108779;28;20020;-54
2023/10/06 07:55:09;;;;;;;4.10;2.85;;;17.00;63.00;;;;;;5104463;28;20051;-58
2023/10/06 07:57:42;;;;;;;4.63;3.05;;;17.10;62.40;;;;;;5103666;28;20389;-57
2023/10/06 08:00:17;;;;;;;4.93;2.80;;;17.10;62.70;;;;;;5099019;28;20024;-58
2023/10/06 08:02:43;;;;;;;4.50;3.00;;;17.10;62.60;;;;;;5097025;27;20036;-58
2023/10/06 08:05:12;;;;;;;4.32;2.78;;;17.10;62.40;;;;;;5106402;28;20031;-57
2023/10/06 08:07:44;;;;;;;5.55;3.05;;;17.10;62.30;;;;;;5103763;28;20428;-59
2023/10/06 08:10:13;;;;;;;6.03;3.30;;;17.20;61.90;;;;;;5104257;27;20019;-56
2023/10/06 08:12:50;;;;;;;4.82;3.30;;;17.10;61.90;;;;;;5100701;28;20028;-57
2023/10/06 08:15:17;;;;;;;5.05;3.53;;;17.10;61.80;;;;;;5101796;28;20165;-55
2023/10/06 08:17:47;;;;;;;5.25;3.20;;;17.10;61.60;;;;;;5099231;28;20039;-52
